sensor_id;sensor_type;location;lat;lon;timestamp;pressure;altitude;pressure_sealevel;temperature;humidity
6851;BME280;3464;42.728;23.296;2023-03-20T00:00:45;95599.16;;;9.47;59.10
6851;BME280;3464;42.728;23.296;2023-03-20T00:03:10;95600.58;;;9.56;59.14
6851;BME280;3464;42.728;23.296;2023-03-20T00:05:37;95599.69;;;9.54;59.33
6851;BME280;3464;42.728;23.296;2023-03-20T00:08:03;95603.03;;;9.54;59.27
6851;BME280;3464;42.728;23.296;2023-03-20T00:10:33;95596.06;;;9.61;59.05
6851;BME280;3464;42.728;23.296;2023-03-20T00:12:58;95592.48;;;9.72;58.65
6851;BME280;3464;42.728;23.296;2023-03-20T00:15:26;95586.03;;;9.63;58.88
6851;BME280;3464;42.728;23.296;2023-03-20T00:17:52;95583.30;;;9.51;59.21
6851;BME280;3464;42.728;23.296;2023-03-20T00:20:19;95586.67;;;9.51;59.39
6851;BME280;3464;42.728;23.296;2023-03-20T00:22:46;95588.50;;;9.38;59.69
6851;BME280;3464;42.728;23.296;2023-03-20T00:25:14;95583.50;;;9.40;59.60
6851;BME280;3464;42.728;23.296;2023-03-20T00:27:40;95583.56;;;9.43;59.31
6851;BME280;3464;42.728;23.296;2023-03-20T00:30:15;95583.48;;;9.38;59.55
6851;BME280;3464;42.728;23.296;2023-03-20T00:32:42;95582.17;;;9.34;59.56
6851;BME280;3464;42.728;23.296;2023-03-20T00:35:18;95582.51;;;9.30;59.54
6851;BME280;3464;42.728;23.296;2023-03-20T00:37:44;95582.37;;;9.23;59.66
6851;BME280;3464;42.728;23.296;2023-03-20T00:40:11;95585.06;;;9.11;59.83
6851;BME280;3464;42.728;23.296;2023-03-20T00:42:38;95579.42;;;9.23;59.59
6851;BME280;3464;42.728;23.296;2023-03-20T00:45:10;95585.30;;;9.24;59.47
6851;BME280;3464;42.728;23.296;2023-03-20T00:47:34;95580.56;;;9.16;59.73
6851;BME280;3464;42.728;23.296;2023-03-20T00:50:00;95577.14;;;9.12;59.72
6851;BME280;3464;42.728;23.296;2023-03-20T00:52:27;95577.63;;;8.94;60.54
6851;BME280;3464;42.728;23.296;2023-03-20T00:54:54;95576.53;;;9.02;60.33
6851;BME280;3464;42.728;23.296;2023-03-20T00:57:23;95580.93;;;9.14;59.66
6851;BME280;3464;42.728;23.296;2023-03-20T00:59:55;95578.13;;;8.98;59.92
6851;BME280;3464;42.728;23.296;2023-03-20T01:02:20;95569.42;;;9.03;59.72
6851;BME280;3464;42.728;23.296;2023-03-20T01:04:47;95565.42;;;8.90;60.24
6851;BME280;3464;42.728;23.296;2023-03-20T01:07:14;95566.06;;;8.81;60.80
6851;BME280;3464;42.728;23.296;2023-03-20T01:09:41;95560.18;;;8.80;60.48
6851;BME280;3464;42.728;23.296;2023-03-20T01:12:09;95552.86;;;8.69;60.65
6851;BME280;3464;42.728;23.296;2023-03-20T01:14:34;95555.56;;;8.78;60.40
6851;BME280;3464;42.728;23.296;2023-03-20T01:17:00;95554.40;;;8.83;60.11
6851;BME280;3464;42.728;23.296;2023-03-20T01:19:27;95548.89;;;8.79;60.27
6851;BME280;3464;42.728;23.296;2023-03-20T01:21:54;95549.09;;;8.69;60.55
6851;BME280;3464;42.728;23.296;2023-03-20T01:24:21;95550.20;;;8.62;60.96
6851;BME280;3464;42.728;23.296;2023-03-20T01:26:49;95551.88;;;8.62;61.17
6851;BME280;3464;42.728;23.296;2023-03-20T01:29:17;95550.66;;;8.63;61.10
6851;BME280;3464;42.728;23.296;2023-03-20T01:31:43;95546.59;;;8.70;60.79
6851;BME280;3464;42.728;23.296;2023-03-20T01:34:10;95542.11;;;8.55;61.07
6851;BME280;3464;42.728;23.296;2023-03-20T01:36:38;95558.88;;;8.57;61.79
6851;BME280;3464;42.728;23.296;2023-03-20T01:39:04;95560.73;;;8.65;61.53
6851;BME280;3464;42.728;23.296;2023-03-20T01:41:31;95557.94;;;8.73;61.23
6851;BME280;3464;42.728;23.296;2023-03-20T01:44:16;95563.66;;;8.66;61.64
6851;BME280;3464;42.728;23.296;2023-03-20T01:46:27;95564.84;;;8.82;61.25
6851;BME280;3464;42.728;23.296;2023-03-20T01:51:42;95567.07;;;8.90;60.67
6851;BME280;3464;42.728;23.296;2023-03-20T01:54:11;95560.00;;;8.71;60.79
6851;BME280;3464;42.728;23.296;2023-03-20T01:56:39;95563.86;;;8.76;61.02
6851;BME280;3464;42.728;23.296;2023-03-20T01:59:07;95560.61;;;8.80;61.08
6851;BME280;3464;42.728;23.296;2023-03-20T02:01:32;95557.61;;;8.76;60.87
6851;BME280;3464;42.728;23.296;2023-03-20T02:03:59;95554.73;;;8.80;60.80
6851;BME280;3464;42.728;23.296;2023-03-20T02:06:26;95554.31;;;8.78;60.73
6851;BME280;3464;42.728;23.296;2023-03-20T02:08:52;95554.42;;;8.64;60.71
6851;BME280;3464;42.728;23.296;2023-03-20T02:11:22;95552.03;;;8.70;60.76
6851;BME280;3464;42.728;23.296;2023-03-20T02:13:48;95546.41;;;8.81;60.60
6851;BME280;3464;42.728;23.296;2023-03-20T02:16:15;95548.24;;;8.68;60.98
6851;BME280;3464;42.728;23.296;2023-03-20T02:18:43;95552.38;;;8.66;60.87
6851;BME280;3464;42.728;23.296;2023-03-20T02:22:37;95551.27;;;8.73;60.56
6851;BME280;3464;42.728;23.296;2023-03-20T02:24:25;95560.48;;;8.75;60.47
6851;BME280;3464;42.728;23.296;2023-03-20T02:30:20;95562.55;;;8.52;61.44
6851;BME280;3464;42.728;23.296;2023-03-20T02:35:23;95564.67;;;8.17;62.54
6851;BME280;3464;42.728;23.296;2023-03-20T02:40:39;95558.81;;;8.35;61.54
6851;BME280;3464;42.728;23.296;2023-03-20T02:43:10;95553.08;;;8.40;61.69
6851;BME280;3464;42.728;23.296;2023-03-20T02:45:37;95553.67;;;8.47;61.41
6851;BME280;3464;42.728;23.296;2023-03-20T02:49:09;95544.30;;;8.39;61.59
6851;BME280;3464;42.728;23.296;2023-03-20T02:50:50;95525.32;;;8.31;61.17
6851;BME280;3464;42.728;23.296;2023-03-20T02:54:25;95552.25;;;8.40;61.45
6851;BME280;3464;42.728;23.296;2023-03-20T02:56:19;95547.83;;;8.28;61.74
6851;BME280;3464;42.728;23.296;2023-03-20T03:00:06;95537.09;;;8.17;61.87
6851;BME280;3464;42.728;23.296;2023-03-20T03:01:41;95547.95;;;8.17;61.94
6851;BME280;3464;42.728;23.296;2023-03-20T03:04:10;95548.12;;;8.22;61.67
6851;BME280;3464;42.728;23.296;2023-03-20T03:06:35;95550.33;;;8.28;61.70
6851;BME280;3464;42.728;23.296;2023-03-20T03:09:08;95541.06;;;8.25;61.19
6851;BME280;3464;42.728;23.296;2023-03-20T03:11:33;95547.69;;;8.22;61.61
6851;BME280;3464;42.728;23.296;2023-03-20T03:13:59;95545.55;;;8.21;61.51
6851;BME280;3464;42.728;23.296;2023-03-20T03:16:28;95532.88;;;8.15;61.42
6851;BME280;3464;42.728;23.296;2023-03-20T03:18:59;95550.28;;;8.09;61.71
6851;BME280;3464;42.728;23.296;2023-03-20T03:21:21;95550.18;;;8.05;61.92
6851;BME280;3464;42.728;23.296;2023-03-20T03:23:48;95559.27;;;8.01;62.12
6851;BME280;3464;42.728;23.296;2023-03-20T03:26:24;95551.07;;;8.06;61.94
6851;BME280;3464;42.728;23.296;2023-03-20T03:28:51;95541.87;;;7.89;62.36
6851;BME280;3464;42.728;23.296;2023-03-20T03:31:32;95551.55;;;7.92;62.68
6851;BME280;3464;42.728;23.296;2023-03-20T03:34:07;95552.50;;;7.96;62.85
6851;BME280;3464;42.728;23.296;2023-03-20T03:36:53;95558.34;;;7.96;62.79
6851;BME280;3464;42.728;23.296;2023-03-20T03:42:06;95558.13;;;7.87;63.14
6851;BME280;3464;42.728;23.296;2023-03-20T03:44:45;95555.84;;;7.96;63.20
6851;BME280;3464;42.728;23.296;2023-03-20T03:47:15;95545.95;;;7.84;63.41
6851;BME280;3464;42.728;23.296;2023-03-20T03:49:42;95545.16;;;8.04;62.90
6851;BME280;3464;42.728;23.296;2023-03-20T03:52:09;95538.07;;;8.10;62.62
6851;BME280;3464;42.728;23.296;2023-03-20T03:54:42;95550.75;;;7.93;63.08
6851;BME280;3464;42.728;23.296;2023-03-20T03:57:07;95540.65;;;8.08;62.81
6851;BME280;3464;42.728;23.296;2023-03-20T03:59:37;95536.89;;;8.08;62.63
6851;BME280;3464;42.728;23.296;2023-03-20T04:02:03;95539.89;;;8.12;62.34
6851;BME280;3464;42.728;23.296;2023-03-20T04:04:30;95534.56;;;7.97;62.68
6851;BME280;3464;42.728;23.296;2023-03-20T04:06:56;95532.51;;;8.18;62.10
6851;BME280;3464;42.728;23.296;2023-03-20T04:09:25;95541.25;;;8.17;62.02
6851;BME280;3464;42.728;23.296;2023-03-20T04:11:52;95533.63;;;8.12;62.18
6851;BME280;3464;42.728;23.296;2023-03-20T04:14:21;95533.73;;;8.34;61.77
6851;BME280;3464;42.728;23.296;2023-03-20T04:16:49;95522.88;;;8.17;62.00
6851;BME280;3464;42.728;23.296;2023-03-20T04:19:15;95517.47;;;8.18;61.95
6851;BME280;3464;42.728;23.296;2023-03-20T04:21:42;95518.48;;;8.26;61.90
6851;BME280;3464;42.728;23.296;2023-03-20T04:24:09;95518.75;;;8.37;61.91
6851;BME280;3464;42.728;23.296;2023-03-20T04:26:35;95517.30;;;8.47;61.55
6851;BME280;3464;42.728;23.296;2023-03-20T04:29:02;95529.67;;;8.40;61.74
6851;BME280;3464;42.728;23.296;2023-03-20T04:31:29;95524.49;;;8.32;62.49
6851;BME280;3464;42.728;23.296;2023-03-20T04:33:56;95526.53;;;8.50;61.70
6851;BME280;3464;42.728;23.296;2023-03-20T04:36:23;95533.86;;;8.60;61.57
6851;BME280;3464;42.728;23.296;2023-03-20T04:38:49;95534.05;;;8.69;61.08
6851;BME280;3464;42.728;23.296;2023-03-20T04:41:16;95545.95;;;8.39;61.15
6851;BME280;3464;42.728;23.296;2023-03-20T04:43:43;95543.86;;;8.58;60.60
6851;BME280;3464;42.728;23.296;2023-03-20T04:46:10;95543.95;;;9.52;58.43
6851;BME280;3464;42.728;23.296;2023-03-20T04:48:40;95550.84;;;9.40;58.32
6851;BME280;3464;42.728;23.296;2023-03-20T04:51:07;95548.09;;;9.50;57.96
6851;BME280;3464;42.728;23.296;2023-03-20T04:53:34;95546.78;;;9.70;57.72
6851;BME280;3464;42.728;23.296;2023-03-20T04:56:01;95549.73;;;9.99;56.95
6851;BME280;3464;42.728;23.296;2023-03-20T04:58:28;95561.14;;;10.61;56.47
6851;BME280;3464;42.728;23.296;2023-03-20T05:00:54;95555.03;;;11.12;55.65
6851;BME280;3464;42.728;23.296;2023-03-20T05:03:21;95560.66;;;11.67;54.89
6851;BME280;3464;42.728;23.296;2023-03-20T05:05:48;95558.81;;;11.95;54.00
6851;BME280;3464;42.728;23.296;2023-03-20T05:08:14;95552.08;;;11.97;53.17
6851;BME280;3464;42.728;23.296;2023-03-20T05:10:41;95560.02;;;11.89;52.96
6851;BME280;3464;42.728;23.296;2023-03-20T05:13:08;95555.48;;;12.00;53.02
6851;BME280;3464;42.728;23.296;2023-03-20T05:15:35;95559.61;;;12.51;52.21
6851;BME280;3464;42.728;23.296;2023-03-20T05:18:02;95560.50;;;12.56;52.13
6851;BME280;3464;42.728;23.296;2023-03-20T05:20:29;95564.32;;;12.62;51.59
6851;BME280;3464;42.728;23.296;2023-03-20T05:22:55;95575.09;;;11.80;51.99
6851;BME280;3464;42.728;23.296;2023-03-20T05:25:22;95562.30;;;12.11;52.15
6851;BME280;3464;42.728;23.296;2023-03-20T05:27:48;95573.48;;;11.90;52.61
6851;BME280;3464;42.728;23.296;2023-03-20T05:30:15;95569.14;;;11.71;53.13
6851;BME280;3464;42.728;23.296;2023-03-20T05:32:42;95568.87;;;11.92;52.98
6851;BME280;3464;42.728;23.296;2023-03-20T05:35:09;95560.31;;;12.29;52.51
6851;BME280;3464;42.728;23.296;2023-03-20T05:37:37;95565.47;;;12.44;51.83
6851;BME280;3464;42.728;23.296;2023-03-20T05:40:04;95562.52;;;13.32;50.13
6851;BME280;3464;42.728;23.296;2023-03-20T05:42:31;95574.02;;;13.91;49.31
6851;BME280;3464;42.728;23.296;2023-03-20T05:44:57;95574.02;;;14.17;48.43
6851;BME280;3464;42.728;23.296;2023-03-20T05:47:24;95557.52;;;14.62;47.73
6851;BME280;3464;42.728;23.296;2023-03-20T05:49:51;95564.70;;;14.60;47.66
6851;BME280;3464;42.728;23.296;2023-03-20T05:52:17;95562.93;;;14.89;46.62
6851;BME280;3464;42.728;23.296;2023-03-20T05:54:44;95570.34;;;15.42;45.77
6851;BME280;3464;42.728;23.296;2023-03-20T05:57:10;95566.92;;;15.49;45.61
6851;BME280;3464;42.728;23.296;2023-03-20T05:59:52;95572.92;;;15.25;45.01
6851;BME280;3464;42.728;23.296;2023-03-20T06:02:42;95568.17;;;15.50;45.19
6851;BME280;3464;42.728;23.296;2023-03-20T06:05:32;95563.20;;;15.98;44.26
6851;BME280;3464;42.728;23.296;2023-03-20T06:08:21;95570.31;;;16.09;44.33
6851;BME280;3464;42.728;23.296;2023-03-20T06:11:10;95568.16;;;16.65;42.54
6851;BME280;3464;42.728;23.296;2023-03-20T06:14:00;95566.13;;;16.95;42.24
6851;BME280;3464;42.728;23.296;2023-03-20T06:16:50;95566.50;;;16.99;41.44
6851;BME280;3464;42.728;23.296;2023-03-20T06:19:39;95559.22;;;16.69;42.12
6851;BME280;3464;42.728;23.296;2023-03-20T06:22:30;95554.61;;;17.69;40.14
6851;BME280;3464;42.728;23.296;2023-03-20T06:25:19;95559.34;;;17.65;41.09
6851;BME280;3464;42.728;23.296;2023-03-20T06:27:54;95559.00;;;17.88;40.17
6851;BME280;3464;42.728;23.296;2023-03-20T06:30:22;95562.72;;;18.22;39.39
6851;BME280;3464;42.728;23.296;2023-03-20T06:32:49;95569.71;;;16.78;41.44
6851;BME280;3464;42.728;23.296;2023-03-20T06:35:16;95565.52;;;17.78;40.71
6851;BME280;3464;42.728;23.296;2023-03-20T06:37:42;95572.45;;;18.24;39.99
6851;BME280;3464;42.728;23.296;2023-03-20T06:40:10;95557.22;;;17.95;40.36
6851;BME280;3464;42.728;23.296;2023-03-20T06:42:37;95559.19;;;18.29;39.81
6851;BME280;3464;42.728;23.296;2023-03-20T06:45:04;95562.07;;;18.36;40.00
6851;BME280;3464;42.728;23.296;2023-03-20T06:47:31;95557.41;;;17.80;39.95
6851;BME280;3464;42.728;23.296;2023-03-20T06:49:58;95552.41;;;18.77;38.92
6851;BME280;3464;42.728;23.296;2023-03-20T06:52:25;95547.86;;;18.93;38.59
6851;BME280;3464;42.728;23.296;2023-03-20T06:54:52;95551.34;;;18.89;38.19
6851;BME280;3464;42.728;23.296;2023-03-20T06:57:18;95546.84;;;18.80;38.64
6851;BME280;3464;42.728;23.296;2023-03-20T06:59:45;95541.83;;;19.79;37.70
6851;BME280;3464;42.728;23.296;2023-03-20T07:02:12;95549.19;;;19.34;37.69
6851;BME280;3464;42.728;23.296;2023-03-20T07:04:40;95550.98;;;18.62;38.61
6851;BME280;3464;42.728;23.296;2023-03-20T07:07:06;95555.84;;;18.27;39.43
6851;BME280;3464;42.728;23.296;2023-03-20T07:09:33;95544.22;;;18.62;38.94
6851;BME280;3464;42.728;23.296;2023-03-20T07:11:59;95539.97;;;18.61;38.96
6851;BME280;3464;42.728;23.296;2023-03-20T07:14:26;95538.14;;;17.93;40.15
6851;BME280;3464;42.728;23.296;2023-03-20T07:16:53;95536.08;;;17.61;40.48
6851;BME280;3464;42.728;23.296;2023-03-20T07:19:20;95536.34;;;17.70;40.16
6851;BME280;3464;42.728;23.296;2023-03-20T07:21:47;95543.52;;;17.74;41.00
6851;BME280;3464;42.728;23.296;2023-03-20T07:24:13;95536.44;;;18.20;40.44
6851;BME280;3464;42.728;23.296;2023-03-20T07:26:40;95540.31;;;19.10;38.82
6851;BME280;3464;42.728;23.296;2023-03-20T07:29:06;95542.99;;;18.58;39.73
6851;BME280;3464;42.728;23.296;2023-03-20T07:31:34;95540.45;;;18.32;39.90
6851;BME280;3464;42.728;23.296;2023-03-20T07:34:00;95542.05;;;18.39;40.01
6851;BME280;3464;42.728;23.296;2023-03-20T07:36:27;95546.69;;;18.43;39.70
6851;BME280;3464;42.728;23.296;2023-03-20T07:38:53;95539.75;;;18.50;39.28
6851;BME280;3464;42.728;23.296;2023-03-20T07:41:20;95537.70;;;18.45;40.08
6851;BME280;3464;42.728;23.296;2023-03-20T07:43:47;95545.05;;;17.86;40.65
6851;BME280;3464;42.728;23.296;2023-03-20T07:46:14;95544.05;;;18.21;40.18
6851;BME280;3464;42.728;23.296;2023-03-20T07:48:40;95545.70;;;18.23;39.80
6851;BME280;3464;42.728;23.296;2023-03-20T07:51:07;95541.92;;;18.70;39.94
6851;BME280;3464;42.728;23.296;2023-03-20T07:53:33;95544.45;;;17.96;40.40
6851;BME280;3464;42.728;23.296;2023-03-20T07:56:00;95539.69;;;18.76;39.55
6851;BME280;3464;42.728;23.296;2023-03-20T07:58:27;95533.51;;;18.66;39.33
6851;BME280;3464;42.728;23.296;2023-03-20T08:00:55;95535.05;;;17.72;40.58
6851;BME280;3464;42.728;23.296;2023-03-20T08:03:21;95547.07;;;18.18;41.17
6851;BME280;3464;42.728;23.296;2023-03-20T08:06:02;95539.63;;;19.00;39.22
6851;BME280;3464;42.728;23.296;2023-03-20T08:08:39;95549.75;;;17.82;40.56
6851;BME280;3464;42.728;23.296;2023-03-20T08:11:06;95541.80;;;17.76;41.17
6851;BME280;3464;42.728;23.296;2023-03-20T08:13:33;95537.42;;;17.84;40.98
6851;BME280;3464;42.728;23.296;2023-03-20T08:15:59;95535.29;;;18.39;40.15
6851;BME280;3464;42.728;23.296;2023-03-20T08:18:26;95541.67;;;17.55;40.90
6851;BME280;3464;42.728;23.296;2023-03-20T08:20:52;95531.36;;;18.17;40.56
6851;BME280;3464;42.728;23.296;2023-03-20T08:23:19;95537.50;;;18.30;40.09
6851;BME280;3464;42.728;23.296;2023-03-20T08:25:48;95535.44;;;18.76;39.11
6851;BME280;3464;42.728;23.296;2023-03-20T08:28:15;95535.25;;;18.86;39.00
6851;BME280;3464;42.728;23.296;2023-03-20T08:30:41;95538.08;;;18.21;39.83
6851;BME280;3464;42.728;23.296;2023-03-20T08:33:08;95540.26;;;17.93;40.59
6851;BME280;3464;42.728;23.296;2023-03-20T08:35:35;95534.01;;;18.12;40.09
6851;BME280;3464;42.728;23.296;2023-03-20T08:38:02;95534.97;;;18.79;39.31
6851;BME280;3464;42.728;23.296;2023-03-20T08:40:28;95543.34;;;18.84;39.01
6851;BME280;3464;42.728;23.296;2023-03-20T08:42:55;95540.81;;;19.48;38.26
6851;BME280;3464;42.728;23.296;2023-03-20T08:45:23;95536.44;;;18.91;39.45
6851;BME280;3464;42.728;23.296;2023-03-20T08:47:50;95525.03;;;19.09;38.95
6851;BME280;3464;42.728;23.296;2023-03-20T08:50:17;95534.27;;;19.75;37.67
6851;BME280;3464;42.728;23.296;2023-03-20T08:52:44;95532.93;;;19.59;38.48
6851;BME280;3464;42.728;23.296;2023-03-20T08:55:11;95526.09;;;19.60;38.70
6851;BME280;3464;42.728;23.296;2023-03-20T08:57:37;95527.78;;;19.41;38.98
6851;BME280;3464;42.728;23.296;2023-03-20T09:00:04;95527.61;;;19.28;38.42
6851;BME280;3464;42.728;23.296;2023-03-20T09:02:32;95522.74;;;18.95;39.06
6851;BME280;3464;42.728;23.296;2023-03-20T09:04:58;95528.86;;;19.30;40.46
6851;BME280;3464;42.728;23.296;2023-03-20T09:07:26;95524.06;;;19.14;38.50
6851;BME280;3464;42.728;23.296;2023-03-20T09:09:53;95520.84;;;19.66;38.30
6851;BME280;3464;42.728;23.296;2023-03-20T09:12:19;95513.16;;;19.68;37.77
6851;BME280;3464;42.728;23.296;2023-03-20T09:14:46;95512.77;;;19.66;37.76
6851;BME280;3464;42.728;23.296;2023-03-20T09:17:13;95507.98;;;20.24;37.42
6851;BME280;3464;42.728;23.296;2023-03-20T09:19:40;95501.10;;;20.09;37.98
6851;BME280;3464;42.728;23.296;2023-03-20T09:22:06;95506.66;;;20.26;39.79
6851;BME280;3464;42.728;23.296;2023-03-20T09:24:33;95506.73;;;20.23;36.90
6851;BME280;3464;42.728;23.296;2023-03-20T09:26:59;95504.61;;;20.23;36.78
6851;BME280;3464;42.728;23.296;2023-03-20T09:29:26;95489.98;;;19.37;37.73
6851;BME280;3464;42.728;23.296;2023-03-20T09:31:53;95492.43;;;19.61;37.63
6851;BME280;3464;42.728;23.296;2023-03-20T09:34:19;95479.24;;;19.97;36.85
6851;BME280;3464;42.728;23.296;2023-03-20T09:36:46;95483.03;;;19.63;37.62
6851;BME280;3464;42.728;23.296;2023-03-20T09:39:13;95481.41;;;19.77;37.48
6851;BME280;3464;42.728;23.296;2023-03-20T09:41:42;95477.50;;;19.97;36.88
6851;BME280;3464;42.728;23.296;2023-03-20T09:44:18;95468.03;;;19.85;37.82
6851;BME280;3464;42.728;23.296;2023-03-20T09:46:45;95469.55;;;20.10;36.87
6851;BME280;3464;42.728;23.296;2023-03-20T09:49:22;95461.60;;;20.04;36.66
6851;BME280;3464;42.728;23.296;2023-03-20T09:51:54;95457.19;;;20.59;36.46
6851;BME280;3464;42.728;23.296;2023-03-20T09:54:27;95447.31;;;20.31;36.73
6851;BME280;3464;42.728;23.296;2023-03-20T09:56:53;95442.63;;;20.92;36.19
6851;BME280;3464;42.728;23.296;2023-03-20T09:59:20;95432.75;;;20.49;35.77
6851;BME280;3464;42.728;23.296;2023-03-20T10:01:49;95432.01;;;20.90;35.60
6851;BME280;3464;42.728;23.296;2023-03-20T10:04:14;95424.58;;;21.66;34.96
6851;BME280;3464;42.728;23.296;2023-03-20T10:06:41;95423.55;;;21.32;35.07
6851;BME280;3464;42.728;23.296;2023-03-20T10:09:20;95421.73;;;20.92;35.55
6851;BME280;3464;42.728;23.296;2023-03-20T10:13:00;95416.03;;;21.13;35.26
6851;BME280;3464;42.728;23.296;2023-03-20T10:14:49;95402.38;;;21.40;34.94
6851;BME280;3464;42.728;23.296;2023-03-20T10:17:23;95404.73;;;21.74;34.40
6851;BME280;3464;42.728;23.296;2023-03-20T10:19:50;95401.73;;;22.12;33.72
6851;BME280;3464;42.728;23.296;2023-03-20T10:22:28;95387.25;;;21.86;33.78
6851;BME280;3464;42.728;23.296;2023-03-20T10:24:57;95400.23;;;21.67;33.71
6851;BME280;3464;42.728;23.296;2023-03-20T10:27:23;95395.73;;;21.47;34.24
6851;BME280;3464;42.728;23.296;2023-03-20T10:29:58;95386.92;;;22.32;33.05
6851;BME280;3464;42.728;23.296;2023-03-20T10:32:28;95380.21;;;22.77;32.51
6851;BME280;3464;42.728;23.296;2023-03-20T10:34:58;95374.44;;;22.60;32.25
6851;BME280;3464;42.728;23.296;2023-03-20T10:37:47;95378.66;;;21.87;32.92
6851;BME280;3464;42.728;23.296;2023-03-20T10:40:29;95370.16;;;22.71;32.41
6851;BME280;3464;42.728;23.296;2023-03-20T10:42:56;95369.92;;;23.22;31.44
6851;BME280;3464;42.728;23.296;2023-03-20T10:45:37;95365.30;;;22.75;31.37
6851;BME280;3464;42.728;23.296;2023-03-20T10:48:09;95357.04;;;22.90;31.82
6851;BME280;3464;42.728;23.296;2023-03-20T10:50:36;95358.22;;;23.26;31.11
6851;BME280;3464;42.728;23.296;2023-03-20T10:53:02;95349.95;;;23.61;30.36
6851;BME280;3464;42.728;23.296;2023-03-20T10:55:29;95345.46;;;23.77;30.52
6851;BME280;3464;42.728;23.296;2023-03-20T10:58:08;95341.44;;;23.81;30.62
6851;BME280;3464;42.728;23.296;2023-03-20T11:00:33;95341.35;;;23.93;31.02
6851;BME280;3464;42.728;23.296;2023-03-20T11:03:00;95340.72;;;24.08;30.64
6851;BME280;3464;42.728;23.296;2023-03-20T11:05:31;95335.85;;;23.81;30.83
6851;BME280;3464;42.728;23.296;2023-03-20T11:08:11;95335.70;;;23.95;30.84
6851;BME280;3464;42.728;23.296;2023-03-20T11:10:38;95332.44;;;24.02;31.05
6851;BME280;3464;42.728;23.296;2023-03-20T11:13:25;95330.83;;;24.68;30.82
6851;BME280;3464;42.728;23.296;2023-03-20T11:15:51;95319.78;;;23.55;31.27
6851;BME280;3464;42.728;23.296;2023-03-20T11:18:17;95315.19;;;23.20;31.50
6851;BME280;3464;42.728;23.296;2023-03-20T11:20:46;95310.11;;;23.19;31.88
6851;BME280;3464;42.728;23.296;2023-03-20T11:23:15;95300.05;;;23.36;31.74
6851;BME280;3464;42.728;23.296;2023-03-20T11:25:49;95298.66;;;23.27;31.49
6851;BME280;3464;42.728;23.296;2023-03-20T11:31:35;95304.72;;;23.15;31.07
6851;BME280;3464;42.728;23.296;2023-03-20T11:34:20;95291.41;;;22.94;31.38
6851;BME280;3464;42.728;23.296;2023-03-20T11:37:05;95288.63;;;23.73;30.62
6851;BME280;3464;42.728;23.296;2023-03-20T11:39:30;95283.05;;;23.94;29.76
6851;BME280;3464;42.728;23.296;2023-03-20T11:41:59;95247.64;;;24.38;29.22
6851;BME280;3464;42.728;23.296;2023-03-20T11:44:32;95269.06;;;24.10;28.66
6851;BME280;3464;42.728;23.296;2023-03-20T11:47:01;95263.41;;;22.99;30.33
6851;BME280;3464;42.728;23.296;2023-03-20T11:49:28;95258.04;;;23.37;29.61
6851;BME280;3464;42.728;23.296;2023-03-20T11:51:58;95255.83;;;23.39;29.22
6851;BME280;3464;42.728;23.296;2023-03-20T11:54:22;95251.66;;;23.56;29.02
6851;BME280;3464;42.728;23.296;2023-03-20T11:56:52;95242.30;;;24.14;28.81
6851;BME280;3464;42.728;23.296;2023-03-20T11:59:20;95245.37;;;23.92;28.87
6851;BME280;3464;42.728;23.296;2023-03-20T12:01:48;95239.34;;;24.32;28.17
6851;BME280;3464;42.728;23.296;2023-03-20T12:04:16;95237.70;;;24.11;27.56
6851;BME280;3464;42.728;23.296;2023-03-20T12:09:43;95222.30;;;24.76;26.71
6851;BME280;3464;42.728;23.296;2023-03-20T12:12:17;95220.50;;;24.22;25.90
6851;BME280;3464;42.728;23.296;2023-03-20T12:14:56;95219.86;;;23.98;25.77
6851;BME280;3464;42.728;23.296;2023-03-20T12:17:26;95218.31;;;24.04;25.50
6851;BME280;3464;42.728;23.296;2023-03-20T12:19:51;95215.95;;;23.79;26.32
6851;BME280;3464;42.728;23.296;2023-03-20T12:22:24;95211.56;;;24.21;26.52
6851;BME280;3464;42.728;23.296;2023-03-20T12:25:29;95204.48;;;24.81;26.23
6851;BME280;3464;42.728;23.296;2023-03-20T12:27:37;95208.64;;;24.47;26.34
6851;BME280;3464;42.728;23.296;2023-03-20T12:30:13;95210.33;;;24.66;26.67
6851;BME280;3464;42.728;23.296;2023-03-20T12:32:46;95204.30;;;24.93;26.23
6851;BME280;3464;42.728;23.296;2023-03-20T12:35:30;95198.70;;;24.93;26.04
6851;BME280;3464;42.728;23.296;2023-03-20T12:37:56;95199.35;;;24.98;26.47
6851;BME280;3464;42.728;23.296;2023-03-20T12:40:33;95197.11;;;24.65;26.00
6851;BME280;3464;42.728;23.296;2023-03-20T12:43:15;95192.30;;;24.56;25.65
6851;BME280;3464;42.728;23.296;2023-03-20T12:45:46;95186.56;;;24.51;26.00
6851;BME280;3464;42.728;23.296;2023-03-20T12:51:06;95175.69;;;24.45;26.23
6851;BME280;3464;42.728;23.296;2023-03-20T12:54:16;95175.81;;;24.79;26.00
6851;BME280;3464;42.728;23.296;2023-03-20T12:56:48;95173.58;;;24.72;25.75
6851;BME280;3464;42.728;23.296;2023-03-20T12:59:22;95168.50;;;25.14;25.67
6851;BME280;3464;42.728;23.296;2023-03-20T13:02:07;95164.36;;;25.02;25.56
6851;BME280;3464;42.728;23.296;2023-03-20T13:04:42;95159.19;;;25.12;25.79
6851;BME280;3464;42.728;23.296;2023-03-20T13:07:12;95160.95;;;24.75;26.32
6851;BME280;3464;42.728;23.296;2023-03-20T13:10:16;95155.39;;;25.19;25.88
6851;BME280;3464;42.728;23.296;2023-03-20T13:12:36;95148.66;;;24.54;26.33
6851;BME280;3464;42.728;23.296;2023-03-20T13:15:12;95147.05;;;24.97;26.14
6851;BME280;3464;42.728;23.296;2023-03-20T13:17:42;95145.84;;;24.69;26.14
6851;BME280;3464;42.728;23.296;2023-03-20T13:20:18;95145.48;;;24.76;26.46
6851;BME280;3464;42.728;23.296;2023-03-20T13:28:28;95126.08;;;24.96;24.98
6851;BME280;3464;42.728;23.296;2023-03-20T13:30:55;95119.75;;;25.10;25.24
6851;BME280;3464;42.728;23.296;2023-03-20T13:33:25;95123.94;;;25.46;25.07
6851;BME280;3464;42.728;23.296;2023-03-20T13:35:53;95120.34;;;25.15;25.26
6851;BME280;3464;42.728;23.296;2023-03-20T13:38:19;95113.88;;;25.33;25.22
6851;BME280;3464;42.728;23.296;2023-03-20T13:40:45;95111.55;;;25.45;24.92
6851;BME280;3464;42.728;23.296;2023-03-20T13:43:29;95111.18;;;25.44;24.87
6851;BME280;3464;42.728;23.296;2023-03-20T13:46:11;95107.61;;;25.12;25.19
6851;BME280;3464;42.728;23.296;2023-03-20T13:48:39;95108.28;;;24.91;25.06
6851;BME280;3464;42.728;23.296;2023-03-20T13:51:10;95101.28;;;24.93;25.22
6851;BME280;3464;42.728;23.296;2023-03-20T13:56:31;95104.06;;;24.98;25.41
6851;BME280;3464;42.728;23.296;2023-03-20T13:58:59;95101.20;;;25.70;24.84
6851;BME280;3464;42.728;23.296;2023-03-20T14:01:49;95097.67;;;25.88;24.52